Flight Track Log - Related Links

Times and Time Zones

All times are in EDT time to prevent confusion due to time zone crossing. See the EJA831 flight status page for this flight to view local times or setup timezone preferences in your user account.

Time Position Orientation Groundspeed Altitude Reporting Facility
EDT Latitude Longitude Course Direction KTS MPH feet Rate Location/Type
Wed 10:35:56 AM 39.0833 -84.4167 201° Southwest 175 201 1,200  Level Cincinnati TRACON
Wed 10:36:39 AM 39.0500 -84.4333 201° Southwest 200 230 1,900 765 Climbing Cincinnati TRACON
Wed 10:37:38 AM 39.0000 -84.4667 207° Southwest 198 228 2,500 300 Climbing Cincinnati TRACON
Wed 10:38:39 AM 38.9500 -84.4833 195° South 176 203 2,500  Level Cincinnati TRACON
Wed 10:39:39 AM 38.9167 -84.5000 201° Southwest 162 186 2,500 300 Level Cincinnati TRACON
Wed 10:40:39 AM 38.9000 -84.5667 252° West 169 194 3,100 1,257 Climbing Cincinnati TRACON
Wed 10:41:24 AM 38.9119 -84.6053 292° West 173 199 4,700 2,500 Climbing Indianapolis Center
Wed 10:41:39 AM 38.9167 -84.6333 282° West 191 220 5,600 2,783 Climbing Cincinnati TRACON
Wed 10:42:33 AM 38.9333 -84.7000 288° West 249 287 7,900 2,421 Climbing Cincinnati TRACON
Wed 10:44:30 AM 39.0614 -84.7700 337° Northwest 282 325 12,500 2,279 Climbing Indianapolis Center
Wed 10:45:32 AM 39.1578 -84.8214 338° Northwest 315 362 14,700 2,129 Climbing Indianapolis Center
Wed 10:46:34 AM 39.2464 -84.8669 338° Northwest 334 384 16,900 2,419 Climbing Indianapolis Center
Wed 10:47:36 AM 39.3281 -84.9097 338° Northwest 319 367 19,700 2,419 Climbing Indianapolis Center
Wed 10:48:38 AM 39.4094 -84.9531 338° Northwest 310 357 21,900 1,790 Climbing Indianapolis Center
Wed 10:49:40 AM 39.4975 -84.9989 338° Northwest 337 388 23,400 1,597 Climbing Indianapolis Center
Wed 10:50:42 AM 39.5906 -85.0431 340° North 350 403 25,200 1,694 Climbing Indianapolis Center
Wed 10:51:44 AM 39.6869 -85.0772 345° North 354 407 26,900 1,500 Climbing Indianapolis Center
Wed 10:52:46 AM 39.7839 -85.1128 344° North 356 410 28,300 1,171 Climbing Indianapolis Center
Wed 10:53:47 AM 39.8847 -85.1478 345° North 367 422 29,300 829 Climbing Indianapolis Center
Wed 10:54:49 AM 40.0039 -85.1906 345° North 375 432 30,000 339 Climbing Indianapolis Center
Wed 10:55:51 AM 40.1133 -85.2292 345° North 398 458 30,000  Level Indianapolis Center
Wed 10:56:53 AM 40.2247 -85.2697 344° North 407 468 30,000  Level Indianapolis Center
Wed 10:57:55 AM 40.3353 -85.3100 344° North 409 471 30,000  Level Indianapolis Center
Wed 10:58:32 AM 40.3944 -85.3292 346° North 407 468 30,000  Level Chicago Center
Wed 10:59:34 AM 40.5017 -85.3700 344° North 403 464 30,000  Level Chicago Center
Wed 11:00:36 AM 40.6100 -85.4083 345° North 403 464 30,000  Level Chicago Center
Wed 11:01:38 AM 40.7400 -85.4567 344° North 404 465 30,000 -194 Level Chicago Center
Wed 11:02:40 AM 40.8494 -85.4947 345° North 405 466 29,600 -677 Descending Chicago Center
Wed 11:03:42 AM 40.9606 -85.5378 344° North 413 475 28,600 -774 Descending Chicago Center
Wed 11:04:44 AM 41.0714 -85.5756 346° North 412 474 28,000 -290 Descending Chicago Center
Wed 11:05:46 AM 41.1814 -85.5981 351° North 400 460 28,000  Level Chicago Center
Wed 11:06:47 AM 41.2922 -85.6231 350° North 404 465 28,000 -439 Level Chicago Center
Wed 11:07:49 AM 41.4050 -85.6475 351° North 408 470 27,100 -1,742 Descending Chicago Center
Wed 11:08:51 AM 41.5389 -85.6783 350° North 404 465 24,400 -1,500 Descending Chicago Center
Wed 11:09:53 AM 41.6497 -85.7008 351° North 397 457 24,000 -194 Descending Chicago Center
Wed 11:10:55 AM 41.7586 -85.7247 351° North 392 451 24,000 -435 Level Chicago Center
Wed 11:11:57 AM 41.8653 -85.7478 351° North 385 443 23,100 -919 Descending Chicago Center
Wed 11:12:59 AM 41.9725 -85.7717 351° North 388 447 22,100 -532 Descending Chicago Center
Wed 11:14:01 AM 42.0853 -85.7969 351° North 376 433 22,000 -49 Descending Chicago Center
Wed 11:15:02 AM 42.1886 -85.8206 350° North 376 433 22,000  Level Chicago Center
Wed 11:16:04 AM 42.2953 -85.8411 352° North 383 441 22,000  Level Chicago Center
Wed 11:17:06 AM 42.3994 -85.8642 351° North 382 440 22,000  Level Chicago Center
Wed 11:18:08 AM 42.5047 -85.8864 351° North 382 440 22,000  Level Chicago Center
Wed 11:19:10 AM 42.6078 -85.9131 349° North 380 437 22,000  Level Chicago Center
Wed 11:20:12 AM 42.7131 -85.9367 351° North 383 441 22,000  Level Chicago Center
Wed 11:21:14 AM 42.8369 -85.9642 351° North 376 433 22,000  Level Chicago Center
Wed 11:22:15 AM 42.9353 -86.0044 343° North 374 430 22,000  Level Chicago Center
Wed 11:23:17 AM 42.9736 -86.1278 293° West 347 399 22,000  Level Chicago Center
Wed 11:24:19 AM 42.9917 -86.2589 281° West 345 397 22,000  Level Chicago Center
Wed 11:25:21 AM 43.0097 -86.3839 281° West 338 389 22,000 -339 Level Chicago Center
Wed 11:26:23 AM 43.0283 -86.5114 281° West 343 395 21,300 -1,210 Descending Chicago Center
Wed 11:27:25 AM 43.0464 -86.6428 281° West 351 404 19,500 -1,742 Descending Chicago Center
Wed 11:28:27 AM 43.0625 -86.7672 280° West 338 389 17,700 -1,805 Descending Chicago Center
Wed 11:29:28 AM 43.0814 -86.9050 281° West 304 350 15,800 -1,707 Descending Chicago Center
Wed 11:30:30 AM 43.0972 -87.0147 281° West 296 341 14,200 -871 Descending Chicago Center
Wed 11:31:32 AM 43.1122 -87.1278 280° West 301 346 14,000 -387 Descending Chicago Center
Wed 11:32:34 AM 43.1272 -87.2386 281° West 299 344 13,400 -1,210 Descending Chicago Center
Wed 11:33:36 AM 43.1400 -87.3333 281° West 257 296 11,500 -1,887 Descending Chicago Center
Wed 11:34:38 AM 43.1414 -87.4406 271° West 232 267 9,500 -1,887 Descending Chicago Center
Wed 11:35:40 AM 43.1397 -87.5253 268° West 221 254 7,600 -1,707 Descending Chicago Center
Wed 11:36:41 AM 43.1369 -87.6131 268° West 227 261 6,000 -780 Descending Chicago Center
Wed 11:37:43 AM 43.1336 -87.7025 267° West 234 269 6,000  Level Chicago Center
Wed 11:38:45 AM 43.1308 -87.7958 268° West 241 277 6,000 -581 Level Chicago Center
Wed 11:39:47 AM 43.1294 -87.8678 269° West 198 228 4,800 -968 Descending Chicago Center
Wed 11:40:49 AM 43.1267 -87.9447 267° West 198 228 4,000 -387 Descending Chicago Center
Wed 11:41:51 AM 43.1242 -88.0394 268° West 206 237 4,000 -341 Level Chicago Center
Wed 11:42:52 AM 43.1189 -88.1289 265° West 222 255 3,300 -683 Descending Chicago Center
Wed 11:43:54 AM 43.0858 -88.1939 235° Southwest 209 241 2,600 -339 Descending Chicago Center
Wed 11:44:56 AM 43.0692 -88.2525 249° West 184 212 2,600 -387 Level Chicago Center
Wed 11:45:58 AM 43.0500 -88.2814 228° Southwest 151 174 1,800 -677 Descending Chicago Center
Wed 11:47:00 AM 43.0372 -88.2361 111° Southeast 143 165 1,200 -581 Descending Chicago Center

Login

Don't have an account? Register now (free) for customized features, flight alerts, and more!